CPX673 Details

Departure: Grand Bahama International Airport (MYGF)
Arrival: Lynden Pindling International Airport (MYNN)
Route: ZFP BR65V ZQA


Current Weather Information
MYGF 232300Z 06020KT 9999 SCT030 26/17 A3009
MYNN 232300Z 07014KT 050V110 9999 SCT025 26/19 A3007